createdAt,value
2018-07-17T00:01:56.293Z,5.03
2018-07-17T00:04:24.781Z,4.63
2018-07-17T00:06:53.157Z,4.93
2018-07-17T00:09:21.606Z,5.37
2018-07-17T00:11:50.011Z,5.50
2018-07-17T00:14:18.424Z,5.93
2018-07-17T00:16:46.804Z,6.63
2018-07-17T00:19:15.222Z,7.20
2018-07-17T00:21:43.614Z,8.23
2018-07-17T00:24:11.967Z,9.27
2018-07-17T00:26:40.344Z,10.57
2018-07-17T00:29:08.783Z,10.93
2018-07-17T00:31:37.121Z,13.23
2018-07-17T00:34:05.759Z,13.73
2018-07-17T00:36:34.153Z,14.63
2018-07-17T00:39:02.592Z,14.93
2018-07-17T00:41:30.939Z,16.17
2018-07-17T00:43:59.326Z,14.97
2018-07-17T00:46:27.709Z,14.57
2018-07-17T00:48:56.187Z,14.37
2018-07-17T00:51:24.552Z,15.03
2018-07-17T00:53:59.255Z,15.23
2018-07-17T00:56:27.666Z,14.73
2018-07-17T00:58:56.059Z,14.83
2018-07-17T01:01:30.187Z,14.13
2018-07-17T01:04:03.824Z,13.40
2018-07-17T01:06:37.551Z,14.60
2018-07-17T01:09:12.700Z,15.10
2018-07-17T01:11:46.774Z,15.33
2018-07-17T01:14:22.171Z,14.87
2018-07-17T01:16:50.529Z,16.23
2018-07-17T01:19:18.924Z,16.53
2018-07-17T01:21:47.295Z,18.17
2018-07-17T01:24:15.675Z,18.93
2018-07-17T01:26:44.038Z,19.97
2018-07-17T01:29:12.498Z,19.63
2018-07-17T01:31:40.867Z,19.33
2018-07-17T01:34:09.227Z,19.03
2018-07-17T01:36:37.592Z,18.07
2018-07-17T01:39:10.231Z,19.00
2018-07-17T01:41:38.584Z,16.50
2018-07-17T01:44:07.060Z,18.07
2018-07-17T01:46:35.484Z,17.00
2018-07-17T01:49:03.854Z,17.77
2018-07-17T01:51:32.235Z,15.70
2018-07-17T01:54:00.612Z,15.53
2018-07-17T01:56:28.989Z,15.17
2018-07-17T01:58:57.353Z,14.10
2018-07-17T02:01:25.708Z,13.63
2018-07-17T02:03:54.067Z,13.90
2018-07-17T02:06:22.526Z,11.77
2018-07-17T02:08:50.895Z,11.73
2018-07-17T02:11:19.258Z,11.57
2018-07-17T02:13:47.870Z,10.03
2018-07-17T02:16:22.885Z,9.07
2018-07-17T02:18:51.313Z,7.83
2018-07-17T02:21:19.650Z,7.40
2018-07-17T02:23:48.000Z,7.13
2018-07-17T02:26:16.368Z,6.77
2018-07-17T02:28:44.671Z,7.00
2018-07-17T02:31:13.050Z,7.30
2018-07-17T02:33:41.428Z,6.77
2018-07-17T02:36:09.806Z,6.27
2018-07-17T02:38:38.133Z,5.67
2018-07-17T02:41:06.576Z,5.17
2018-07-17T02:43:34.993Z,5.40
2018-07-17T02:46:03.422Z,5.23
2018-07-17T02:48:31.786Z,4.60
2018-07-17T02:51:00.116Z,4.80
2018-07-17T02:53:28.767Z,5.33
2018-07-17T02:55:57.135Z,4.80
2018-07-17T02:58:25.459Z,4.30
2018-07-17T03:00:53.819Z,4.23
2018-07-17T03:03:22.296Z,4.20
2018-07-17T03:05:50.648Z,4.20
2018-07-17T03:08:19.034Z,4.20
2018-07-17T03:10:47.409Z,4.30
2018-07-17T03:13:15.750Z,3.97
2018-07-17T03:15:44.094Z,3.97
2018-07-17T03:18:12.413Z,4.07
2018-07-17T03:20:40.753Z,3.90
2018-07-17T03:23:09.104Z,3.67
2018-07-17T03:25:37.449Z,4.13
2018-07-17T03:28:06.095Z,3.70
2018-07-17T03:30:34.463Z,3.97
2018-07-17T03:33:02.787Z,4.83
2018-07-17T03:35:31.156Z,4.20
2018-07-17T03:37:59.539Z,4.33
2018-07-17T03:40:27.946Z,4.00
2018-07-17T03:42:56.299Z,4.40
2018-07-17T03:45:24.684Z,4.20
2018-07-17T03:47:53.048Z,4.23
2018-07-17T03:50:21.420Z,5.00
2018-07-17T03:52:49.851Z,5.30
2018-07-17T03:55:18.175Z,5.77
2018-07-17T03:57:46.523Z,5.37
2018-07-17T04:00:14.932Z,5.57
2018-07-17T04:02:43.562Z,5.30
2018-07-17T04:05:11.858Z,4.97
2018-07-17T04:07:40.300Z,4.80
2018-07-17T04:10:08.640Z,4.60
2018-07-17T04:12:37.005Z,4.73
2018-07-17T04:15:05.403Z,4.70
2018-07-17T04:17:33.743Z,4.50
2018-07-17T04:20:02.134Z,4.53
2018-07-17T04:22:30.518Z,4.20
2018-07-17T04:24:58.854Z,4.57
2018-07-17T04:27:27.198Z,5.10
2018-07-17T04:29:55.592Z,5.00
2018-07-17T04:32:23.942Z,5.10
2018-07-17T04:34:52.307Z,4.87
2018-07-17T04:37:20.669Z,5.20
2018-07-17T04:39:49.135Z,4.37
2018-07-17T04:42:17.485Z,5.10
2018-07-17T04:44:45.896Z,4.33
2018-07-17T04:47:14.239Z,4.40
2018-07-17T04:49:42.589Z,4.70
2018-07-17T04:52:10.974Z,5.00
2018-07-17T04:54:39.633Z,4.23
2018-07-17T04:57:08.359Z,5.37
2018-07-17T04:59:36.730Z,4.87
2018-07-17T05:02:05.099Z,4.53
2018-07-17T05:04:33.464Z,4.90
2018-07-17T05:07:01.824Z,6.23
2018-07-17T05:09:30.173Z,5.33
2018-07-17T05:11:58.567Z,6.50
2018-07-17T05:14:26.926Z,6.57
2018-07-17T05:16:55.357Z,6.10
2018-07-17T05:19:23.804Z,6.77
2018-07-17T05:21:52.137Z,7.50
2018-07-17T05:24:20.476Z,6.80
2018-07-17T05:26:48.890Z,8.10
2018-07-17T05:29:17.514Z,7.17
2018-07-17T05:31:45.878Z,5.13
2018-07-17T05:36:48.855Z,9.67
2018-07-17T05:39:17.172Z,9.37
2018-07-17T05:41:45.614Z,10.13
2018-07-17T05:44:14.051Z,9.60
2018-07-17T05:46:42.438Z,10.20
2018-07-17T05:49:10.772Z,11.27
2018-07-17T05:51:39.146Z,10.73
2018-07-17T05:54:07.730Z,10.33
2018-07-17T05:56:36.126Z,10.77
2018-07-17T05:59:07.426Z,10.53
2018-07-17T06:01:35.882Z,11.90
2018-07-17T06:04:04.242Z,11.17
2018-07-17T06:06:32.584Z,12.00
2018-07-17T06:09:01.019Z,11.63
2018-07-17T06:11:29.399Z,10.87
2018-07-17T06:13:57.852Z,9.90
2018-07-17T06:16:26.228Z,9.50
2018-07-17T06:18:54.730Z,8.93
2018-07-17T06:21:25.064Z,9.27
2018-07-17T06:23:53.454Z,7.83
2018-07-17T06:26:21.764Z,9.43
2018-07-17T06:28:50.081Z,8.57
2018-07-17T06:31:18.600Z,8.40
2018-07-17T06:33:46.959Z,8.23
2018-07-17T06:36:15.435Z,8.67
2018-07-17T06:38:43.821Z,8.50
2018-07-17T06:41:12.155Z,7.80
2018-07-17T06:43:40.552Z,7.33
2018-07-17T06:46:08.880Z,6.97
2018-07-17T06:48:37.234Z,6.07
2018-07-17T06:51:05.662Z,6.93
2018-07-17T06:53:34.071Z,7.27
2018-07-17T06:56:02.438Z,6.30
2018-07-17T06:58:30.900Z,6.80
2018-07-17T07:00:59.268Z,5.40
2018-07-17T07:03:27.599Z,5.60
2018-07-17T07:05:56.042Z,5.40
2018-07-17T07:08:24.417Z,5.30
2018-07-17T07:10:53.082Z,5.23
2018-07-17T07:13:21.399Z,6.13
2018-07-17T07:15:49.774Z,5.80
2018-07-17T07:18:18.152Z,5.83
2018-07-17T07:20:46.522Z,5.73
2018-07-17T07:23:14.936Z,5.27
2018-07-17T07:25:43.323Z,6.10
2018-07-17T07:28:11.660Z,5.87
2018-07-17T07:30:40.049Z,6.50
2018-07-17T07:33:08.459Z,6.60
2018-07-17T07:35:36.792Z,6.20
2018-07-17T07:38:05.153Z,6.13
2018-07-17T07:40:33.514Z,6.10
2018-07-17T07:43:01.878Z,6.10
2018-07-17T07:45:30.213Z,5.30
2018-07-17T07:47:58.559Z,5.80
2018-07-17T07:50:26.871Z,5.23
2018-07-17T07:52:55.450Z,5.27
2018-07-17T07:55:23.810Z,5.00
2018-07-17T07:57:52.171Z,4.83
2018-07-17T08:00:20.496Z,4.93
2018-07-17T08:02:49.134Z,4.73
2018-07-17T08:05:17.545Z,4.53
2018-07-17T08:07:45.889Z,4.13
2018-07-17T08:10:14.468Z,3.80
2018-07-17T08:12:42.799Z,3.80
2018-07-17T08:15:11.142Z,3.67
2018-07-17T08:17:39.511Z,3.87
2018-07-17T08:20:07.887Z,3.70
2018-07-17T08:22:36.246Z,4.17
2018-07-17T08:25:04.650Z,3.53
2018-07-17T08:27:33.024Z,3.87
2018-07-17T08:30:01.461Z,4.23
2018-07-17T08:32:29.792Z,3.93
2018-07-17T08:34:58.133Z,3.47
2018-07-17T08:37:26.558Z,5.07
2018-07-17T08:39:54.914Z,4.40
2018-07-17T08:42:23.268Z,3.80
2018-07-17T08:44:51.659Z,3.30
2018-07-17T08:47:19.996Z,3.40
2018-07-17T08:49:48.370Z,3.40
2018-07-17T08:52:16.723Z,3.60
2018-07-17T08:54:46.017Z,3.60
2018-07-17T08:57:14.378Z,3.40
2018-07-17T08:59:42.699Z,3.70
2018-07-17T09:02:11.044Z,3.60
2018-07-17T09:04:39.365Z,3.37
2018-07-17T09:07:07.848Z,2.87
2018-07-17T09:09:36.146Z,2.90
2018-07-17T09:12:04.538Z,3.33
2018-07-17T09:14:32.895Z,3.30
2018-07-17T09:17:01.255Z,2.80
2018-07-17T09:19:29.633Z,2.63
2018-07-17T09:21:57.952Z,3.43
2018-07-17T09:24:26.298Z,3.27
2018-07-17T09:26:54.708Z,3.00
2018-07-17T09:29:23.168Z,3.37
2018-07-17T09:31:51.528Z,3.03
2018-07-17T09:34:19.880Z,3.47
2018-07-17T09:36:48.244Z,3.30
2018-07-17T09:39:16.690Z,3.73
2018-07-17T09:41:45.030Z,3.80
2018-07-17T09:44:13.395Z,3.57
2018-07-17T09:46:41.697Z,3.33
2018-07-17T09:49:10.039Z,3.57
2018-07-17T09:51:38.362Z,3.63
2018-07-17T09:54:06.737Z,3.50
2018-07-17T09:56:35.083Z,3.43
2018-07-17T09:59:03.457Z,3.60
2018-07-17T10:01:37.073Z,3.50
2018-07-17T10:04:05.370Z,3.70
2018-07-17T10:06:33.685Z,3.90
2018-07-17T10:09:01.993Z,3.37
2018-07-17T10:11:30.350Z,4.40
2018-07-17T10:13:58.682Z,4.97
2018-07-17T10:16:27.084Z,4.50
2018-07-17T10:18:55.433Z,4.00
2018-07-17T10:21:23.796Z,4.57
2018-07-17T10:23:52.168Z,4.13
2018-07-17T10:26:20.523Z,4.20
2018-07-17T10:28:48.854Z,4.37
2018-07-17T10:31:17.365Z,3.90
2018-07-17T10:33:45.690Z,4.13
2018-07-17T10:36:14.103Z,4.30
2018-07-17T10:38:42.490Z,3.70
2018-07-17T10:41:10.964Z,4.10
2018-07-17T10:43:39.249Z,3.70
2018-07-17T10:46:07.613Z,4.03
2018-07-17T10:48:37.125Z,4.50
2018-07-17T10:51:05.498Z,5.00
2018-07-17T10:53:33.779Z,4.53
2018-07-17T10:56:02.106Z,4.30
2018-07-17T10:58:30.452Z,3.73
2018-07-17T11:00:58.830Z,3.90
2018-07-17T11:03:27.060Z,3.17
2018-07-17T11:05:56.263Z,3.37
2018-07-17T11:08:24.673Z,4.10
2018-07-17T11:10:52.947Z,4.10
2018-07-17T11:13:21.310Z,3.77
2018-07-17T11:15:49.906Z,4.37
2018-07-17T11:18:18.242Z,3.87
2018-07-17T11:20:46.658Z,4.07
2018-07-17T11:23:15.034Z,4.83
2018-07-17T11:25:43.421Z,5.10
2018-07-17T11:28:12.044Z,4.23
2018-07-17T11:30:40.331Z,3.40
2018-07-17T11:33:08.622Z,4.27
2018-07-17T11:35:37.017Z,3.87
2018-07-17T11:38:05.319Z,4.20
2018-07-17T11:40:33.645Z,3.90
2018-07-17T11:43:02.000Z,3.90
2018-07-17T11:45:30.332Z,4.30
2018-07-17T11:47:58.655Z,3.90
2018-07-17T11:50:26.950Z,3.67
2018-07-17T11:52:56.148Z,3.40
2018-07-17T11:55:24.492Z,3.47
2018-07-17T11:57:52.859Z,3.03
2018-07-17T12:00:21.222Z,3.13
2018-07-17T12:02:49.550Z,3.10
2018-07-17T12:05:24.334Z,3.33
2018-07-17T12:07:52.579Z,3.03
2018-07-17T12:10:21.052Z,3.30
2018-07-17T12:12:49.503Z,3.33
2018-07-17T12:15:17.769Z,3.20
2018-07-17T12:17:46.150Z,3.03
2018-07-17T12:20:14.566Z,2.90
2018-07-17T12:22:42.912Z,3.27
2018-07-17T12:25:11.254Z,3.10
2018-07-17T12:27:39.572Z,3.03
2018-07-17T12:30:08.043Z,3.50
2018-07-17T12:32:36.354Z,3.23
2018-07-17T12:35:04.740Z,3.07
2018-07-17T12:37:35.193Z,3.40
2018-07-17T12:40:03.614Z,3.17
2018-07-17T12:42:31.982Z,2.83
2018-07-17T12:45:00.338Z,2.97
2018-07-17T12:47:29.231Z,2.80
2018-07-17T12:49:57.676Z,2.77
2018-07-17T12:52:25.944Z,2.67
2018-07-17T12:54:54.292Z,2.17
2018-07-17T12:57:22.594Z,2.17
2018-07-17T12:59:51.416Z,2.17
2018-07-17T13:02:19.733Z,2.63
2018-07-17T13:04:48.187Z,3.23
2018-07-17T13:07:16.521Z,2.80
2018-07-17T13:09:45.072Z,3.07
2018-07-17T13:12:13.451Z,3.97
2018-07-17T13:14:41.869Z,3.70
2018-07-17T13:17:10.227Z,3.27
2018-07-17T13:19:38.694Z,3.60
2018-07-17T13:22:07.013Z,3.30
2018-07-17T13:24:35.641Z,3.03
2018-07-17T13:27:03.986Z,3.37
2018-07-17T13:29:32.311Z,2.93
2018-07-17T13:32:00.767Z,3.50
2018-07-17T13:34:29.098Z,3.30
2018-07-17T13:36:57.646Z,3.10
2018-07-17T13:39:26.002Z,3.37
2018-07-17T13:41:54.380Z,3.50
2018-07-17T13:44:22.739Z,3.17
2018-07-17T13:46:51.100Z,2.60
2018-07-17T13:49:19.438Z,3.60
2018-07-17T13:51:47.753Z,3.00
2018-07-17T13:54:16.120Z,2.53
2018-07-17T13:56:44.470Z,3.00
2018-07-17T13:59:12.846Z,2.63
2018-07-17T14:01:41.171Z,2.50
2018-07-17T14:04:09.534Z,2.50
2018-07-17T14:06:37.922Z,2.60
2018-07-17T14:09:07.794Z,3.07
2018-07-17T14:11:36.244Z,2.87
2018-07-17T14:14:04.690Z,2.90
2018-07-17T14:16:33.332Z,2.40
2018-07-17T14:19:01.712Z,2.30
2018-07-17T14:21:30.052Z,2.00
2018-07-17T14:23:58.432Z,2.03
2018-07-17T14:26:26.819Z,1.97
2018-07-17T14:28:55.190Z,2.20
2018-07-17T14:31:23.489Z,2.30
2018-07-17T14:33:52.178Z,2.10
2018-07-17T14:36:20.505Z,2.43
2018-07-17T14:38:49.314Z,2.63
2018-07-17T14:41:17.712Z,2.23
2018-07-17T14:43:46.051Z,2.43
2018-07-17T14:46:14.403Z,2.87
2018-07-17T14:48:42.807Z,2.60
2018-07-17T14:51:12.847Z,3.27
2018-07-17T14:53:41.168Z,3.10
2018-07-17T14:56:10.028Z,3.10
2018-07-17T14:58:38.363Z,2.97
2018-07-17T15:01:07.235Z,2.90
2018-07-17T15:03:35.776Z,3.00
2018-07-17T15:06:04.366Z,3.10
2018-07-17T15:08:32.758Z,3.43
2018-07-17T15:11:01.121Z,3.37
2018-07-17T15:13:29.436Z,3.60
2018-07-17T15:15:57.921Z,3.83
2018-07-17T15:18:26.234Z,3.40
2018-07-17T15:20:54.638Z,3.50
2018-07-17T15:23:22.991Z,3.10
2018-07-17T15:25:51.329Z,3.10
2018-07-17T15:28:20.456Z,3.50
2018-07-17T15:30:49.142Z,3.67
2018-07-17T15:33:17.503Z,3.30
2018-07-17T15:35:45.808Z,3.40
2018-07-17T15:38:14.222Z,4.03
2018-07-17T15:40:42.530Z,3.77
2018-07-17T15:43:10.930Z,3.83
2018-07-17T15:45:39.294Z,3.50
2018-07-17T15:48:07.942Z,3.70
2018-07-17T15:50:36.270Z,4.20
2018-07-17T15:53:04.627Z,3.40
2018-07-17T15:55:32.964Z,3.40
2018-07-17T15:58:01.247Z,3.10
2018-07-17T16:00:29.565Z,2.90
2018-07-17T16:02:57.912Z,2.80
2018-07-17T16:05:26.394Z,2.70
2018-07-17T16:07:54.718Z,2.80
2018-07-17T16:10:23.707Z,3.20
2018-07-17T16:12:52.128Z,3.07
2018-07-17T16:15:20.617Z,3.23
2018-07-17T16:17:49.025Z,3.10
2018-07-17T16:20:17.997Z,2.70
2018-07-17T16:22:46.332Z,3.30
2018-07-17T16:25:14.686Z,2.90
2018-07-17T16:27:43.132Z,3.00
2018-07-17T16:30:11.482Z,2.83
2018-07-17T16:32:40.016Z,2.90
2018-07-17T16:35:09.280Z,2.77
2018-07-17T16:37:41.001Z,2.80
2018-07-17T16:40:12.258Z,3.00
2018-07-17T16:42:40.658Z,2.60
2018-07-17T16:45:09.021Z,2.23
2018-07-17T16:47:37.600Z,2.70
2018-07-17T16:50:06.085Z,2.73
2018-07-17T16:52:35.041Z,2.57
2018-07-17T16:55:03.441Z,3.63
2018-07-17T16:57:32.044Z,2.50
2018-07-17T17:00:00.565Z,3.43
2018-07-17T17:02:28.909Z,2.43
2018-07-17T17:04:57.239Z,3.13
2018-07-17T17:07:25.559Z,2.70
2018-07-17T17:09:53.900Z,2.80
2018-07-17T17:12:22.287Z,2.80
2018-07-17T17:14:50.436Z,2.40
2018-07-17T17:17:41.369Z,2.37
2018-07-17T17:20:09.879Z,3.00
2018-07-17T17:22:38.264Z,2.53
2018-07-17T17:25:06.458Z,1.83
2018-07-17T17:27:34.795Z,2.00
2018-07-17T17:30:03.022Z,2.40
2018-07-17T17:32:31.264Z,2.60
2018-07-17T17:34:59.448Z,2.50
2018-07-17T17:37:27.470Z,2.40
2018-07-17T17:39:55.568Z,3.00
2018-07-17T17:42:23.581Z,2.30
2018-07-17T17:44:51.673Z,2.33
2018-07-17T17:47:19.742Z,2.53
2018-07-17T17:49:47.806Z,2.33
2018-07-17T17:52:15.889Z,2.40
2018-07-17T17:54:44.018Z,11.73
2018-07-17T17:57:12.134Z,3.00
2018-07-17T17:59:43.817Z,2.57
2018-07-17T18:02:12.137Z,2.47
2018-07-17T18:04:40.519Z,3.63
2018-07-17T18:07:12.206Z,2.23
2018-07-17T18:09:58.119Z,3.27
2018-07-17T18:15:20.952Z,2.40
2018-07-17T18:18:01.475Z,2.37
2018-07-17T18:20:37.027Z,1.97
2018-07-17T18:23:08.762Z,12.83
2018-07-17T18:25:37.354Z,3.40
2018-07-17T18:28:06.664Z,2.67
2018-07-17T18:30:35.150Z,2.30
2018-07-17T18:33:04.387Z,2.43
2018-07-17T18:35:32.966Z,5.80
2018-07-17T18:38:03.188Z,11.77
2018-07-17T18:40:32.706Z,6.80
2018-07-17T18:43:01.431Z,3.37
2018-07-17T18:45:30.107Z,2.07
2018-07-17T18:47:59.461Z,2.43
2018-07-17T18:50:28.023Z,2.47
2018-07-17T18:52:56.685Z,2.17
2018-07-17T18:55:25.365Z,2.43
2018-07-17T18:57:53.963Z,2.10
2018-07-17T19:00:22.660Z,2.47
2018-07-17T19:02:51.313Z,2.73
2018-07-17T19:05:20.095Z,2.63
2018-07-17T19:07:49.128Z,2.40
2018-07-17T19:10:18.433Z,2.47
2018-07-17T19:12:47.210Z,2.70
2018-07-17T19:15:15.972Z,2.47
2018-07-17T19:17:45.751Z,2.10
2018-07-17T19:20:15.053Z,2.37
2018-07-17T19:22:43.651Z,2.60
2018-07-17T19:25:12.424Z,2.77
2018-07-17T19:27:42.269Z,2.10
2018-07-17T19:30:11.188Z,2.33
2018-07-17T19:32:39.756Z,3.10
2018-07-17T19:35:15.059Z,2.37
2018-07-17T19:37:44.441Z,2.20
2018-07-17T19:40:13.331Z,2.23
2018-07-17T19:42:42.710Z,2.30
2018-07-17T19:45:11.561Z,2.57
2018-07-17T19:47:41.316Z,2.33
2018-07-17T19:50:10.269Z,2.47
2018-07-17T19:52:38.961Z,2.00
2018-07-17T19:55:07.536Z,3.10
2018-07-17T19:57:35.974Z,2.40
2018-07-17T20:00:04.947Z,2.70
2018-07-17T20:02:33.312Z,2.40
2018-07-17T20:05:01.737Z,2.33
2018-07-17T20:07:30.367Z,2.43
2018-07-17T20:09:58.823Z,2.80
2018-07-17T20:12:27.471Z,2.47
2018-07-17T20:14:55.942Z,2.20
2018-07-17T20:17:24.318Z,2.40
2018-07-17T20:19:52.731Z,2.67
2018-07-17T20:22:21.165Z,2.57
2018-07-17T20:24:49.552Z,2.50
2018-07-17T20:27:17.889Z,2.77
2018-07-17T20:29:46.709Z,2.30
2018-07-17T20:32:15.098Z,2.23
2018-07-17T20:34:43.522Z,2.80
2018-07-17T20:37:11.885Z,2.80
2018-07-17T20:39:40.261Z,2.13
2018-07-17T20:42:09.371Z,2.47
2018-07-17T20:44:37.698Z,2.77
2018-07-17T20:47:06.325Z,2.53
2018-07-17T20:49:34.678Z,2.60
2018-07-17T20:52:03.147Z,2.00
2018-07-17T20:54:31.595Z,2.20
2018-07-17T20:57:04.671Z,2.27
2018-07-17T20:59:33.111Z,2.40
2018-07-17T21:02:01.498Z,2.10
2018-07-17T21:04:31.870Z,2.30
2018-07-17T21:07:01.229Z,2.47
2018-07-17T21:09:29.597Z,3.20
2018-07-17T21:12:02.177Z,3.60
2018-07-17T21:14:30.581Z,2.83
2018-07-17T21:16:58.889Z,2.47
2018-07-17T21:19:27.208Z,1.90
2018-07-17T21:21:58.619Z,2.37
2018-07-17T21:24:28.170Z,2.60
2018-07-17T21:26:58.031Z,2.20
2018-07-17T21:29:26.559Z,3.60
2018-07-17T21:31:54.963Z,3.20
2018-07-17T21:34:23.425Z,3.20
2018-07-17T21:36:51.805Z,2.83
2018-07-17T21:39:20.270Z,3.13
2018-07-17T21:41:48.691Z,3.60
2018-07-17T21:44:17.080Z,3.03
2018-07-17T21:46:45.461Z,3.77
2018-07-17T21:49:13.961Z,3.40
2018-07-17T21:51:42.332Z,3.20
2018-07-17T21:54:10.718Z,4.13
2018-07-17T21:56:39.124Z,3.80
2018-07-17T21:59:07.510Z,3.87
2018-07-17T22:01:37.223Z,4.50
2018-07-17T22:04:05.821Z,4.70
2018-07-17T22:06:34.236Z,4.03
2018-07-17T22:09:02.762Z,3.63
2018-07-17T22:11:31.159Z,4.00
2018-07-17T22:13:59.610Z,4.10
2018-07-17T22:16:28.018Z,3.90
2018-07-17T22:18:56.601Z,3.70
2018-07-17T22:21:25.134Z,3.80
2018-07-17T22:23:53.470Z,3.70
2018-07-17T22:26:21.851Z,3.30
2018-07-17T22:28:50.218Z,3.70
2018-07-17T22:31:19.022Z,3.63
2018-07-17T22:33:47.684Z,3.53
2018-07-17T22:36:16.139Z,3.00
2018-07-17T22:38:44.768Z,3.23
2018-07-17T22:41:13.225Z,3.33
2018-07-17T22:43:41.622Z,3.67
2018-07-17T22:46:10.033Z,3.50
2018-07-17T22:48:38.382Z,3.60
2018-07-17T22:51:06.923Z,3.53
2018-07-17T22:53:35.367Z,3.27
2018-07-17T22:56:03.734Z,3.57
2018-07-17T22:58:32.106Z,3.40
2018-07-17T23:01:00.532Z,3.70
2018-07-17T23:03:28.912Z,3.53
2018-07-17T23:05:57.279Z,3.40
2018-07-17T23:08:25.730Z,3.20
2018-07-17T23:10:54.101Z,3.90
2018-07-17T23:13:22.579Z,3.40
2018-07-17T23:15:50.955Z,3.00
2018-07-17T23:18:19.339Z,3.33
2018-07-17T23:20:47.749Z,3.60
2018-07-17T23:23:17.865Z,3.40
2018-07-17T23:25:46.250Z,3.50
2018-07-17T23:28:14.747Z,3.43
2018-07-17T23:30:43.133Z,3.60
2018-07-17T23:33:11.549Z,3.90
2018-07-17T23:35:40.028Z,3.17
2018-07-17T23:38:08.407Z,3.57
2018-07-17T23:40:36.902Z,3.63
2018-07-17T23:43:05.375Z,2.97
2018-07-17T23:45:33.859Z,3.37
2018-07-17T23:48:02.250Z,3.73
2018-07-17T23:50:30.656Z,2.97
2018-07-17T23:52:59.077Z,3.30
2018-07-17T23:55:27.511Z,3.17
2018-07-17T23:57:55.904Z,2.90
